Time;durP1;ratioP1;P1;durP2;ratioP2;P2;SDS_P1;SDS_P2;PMS_P1;PMS_P2;Temp;Humidity;BMP_temperature;BMP_pressure;BME280_temperature;BME280_humidity;BME280_pressure;Samples;Min_cycle;Max_cycle;Signal;HPM_P1;HPM_P2
2021/09/15 00:00:08;;;;;;;18.02;15.40;;;19.80;86.20;;;;;;4995754;28;20407;-76
2021/09/15 00:02:34;;;;;;;19.90;14.65;;;19.80;85.30;;;;;;4997181;28;20777;-76
2021/09/15 00:04:59;;;;;;;18.50;14.90;;;19.90;84.50;;;;;;4995810;28;20378;-77
2021/09/15 00:07:25;;;;;;;17.83;15.47;;;19.90;83.50;;;;;;4994214;28;20429;-77
2021/09/15 00:09:50;;;;;;;16.87;14.43;;;19.90;84.00;;;;;;4994400;28;20405;-77
2021/09/15 00:12:16;;;;;;;20.30;14.93;;;19.90;85.00;;;;;;4995161;28;20418;-76
2021/09/15 00:14:41;;;;;;;18.60;15.03;;;19.80;85.90;;;;;;4994707;28;20398;-77
2021/09/15 00:17:07;;;;;;;17.97;15.73;;;19.80;86.90;;;;;;4993966;28;20445;-77
2021/09/15 00:19:33;;;;;;;18.73;15.90;;;19.80;87.40;;;;;;4993866;28;20395;-75
2021/09/15 00:21:58;;;;;;;20.77;15.73;;;19.80;86.10;;;;;;4995259;28;20470;-76
2021/09/15 00:24:24;;;;;;;18.57;16.53;;;19.80;85.40;;;;;;4995962;28;20876;-77
2021/09/15 00:26:49;;;;;;;17.13;14.88;;;19.80;85.80;;;;;;5001671;28;20414;-77
2021/09/15 00:29:15;;;;;;;18.67;15.75;;;19.90;84.80;;;;;;4995736;28;20397;-77
2021/09/15 00:31:41;;;;;;;18.30;14.93;;;19.90;85.20;;;;;;4995370;28;20410;-76
2021/09/15 00:34:06;;;;;;;18.90;16.02;;;19.80;85.20;;;;;;4994754;28;20386;-76
2021/09/15 00:36:32;;;;;;;22.65;15.57;;;19.80;85.60;;;;;;4993993;28;20390;-77
2021/09/15 00:38:57;;;;;;;19.93;14.70;;;19.80;86.10;;;;;;4996855;28;20386;-76
2021/09/15 00:41:23;;;;;;;21.90;14.48;;;19.80;86.00;;;;;;4993728;28;20495;-75
2021/09/15 00:43:59;;;;;;;17.07;14.47;;;19.90;85.90;;;;;;4999007;28;20410;-77
2021/09/15 00:46:26;;;;;;;17.90;15.10;;;19.90;85.70;;;;;;4995312;28;20401;-76
2021/09/15 00:48:52;;;;;;;16.48;14.63;;;19.90;86.00;;;;;;4993702;28;20413;-76
2021/09/15 00:51:18;;;;;;;18.85;15.13;;;19.90;84.60;;;;;;4996839;28;20418;-77
2021/09/15 00:53:44;;;;;;;17.23;14.63;;;19.90;84.70;;;;;;5000408;28;20390;-77
2021/09/15 00:56:09;;;;;;;18.58;13.82;;;19.90;85.00;;;;;;4998483;28;20399;-76
2021/09/15 00:58:35;;;;;;;14.82;13.18;;;19.90;84.10;;;;;;5003658;28;20462;-77
2021/09/15 01:01:00;;;;;;;18.13;13.80;;;20.00;84.50;;;;;;5003680;28;20398;-78
2021/09/15 01:03:26;;;;;;;15.45;13.85;;;20.00;83.70;;;;;;4996042;28;20390;-77
2021/09/15 01:05:51;;;;;;;16.73;14.23;;;20.00;83.60;;;;;;4992996;28;20406;-75
2021/09/15 01:08:17;;;;;;;17.63;14.47;;;19.90;84.40;;;;;;4992870;28;20387;-77
2021/09/15 01:10:43;;;;;;;16.48;14.00;;;20.00;84.20;;;;;;4993041;28;20410;-75
2021/09/15 01:13:09;;;;;;;17.30;14.60;;;20.00;84.20;;;;;;4990420;28;20449;-79
2021/09/15 01:15:35;;;;;;;18.33;14.10;;;20.00;83.30;;;;;;4992439;28;20422;-76
2021/09/15 01:18:15;;;;;;;17.67;14.20;;;19.90;83.70;;;;;;4992071;28;20406;-76
2021/09/15 01:20:41;;;;;;;15.70;13.98;;;20.00;83.60;;;;;;4992225;28;20456;-75
2021/09/15 01:23:06;;;;;;;21.98;14.52;;;19.90;84.00;;;;;;4992272;28;20394;-75
2021/09/15 01:25:32;;;;;;;16.47;14.13;;;19.90;83.80;;;;;;4997454;28;20402;-73
2021/09/15 01:27:58;;;;;;;20.17;15.02;;;19.90;83.90;;;;;;4999755;28;20402;-75
2021/09/15 01:30:23;;;;;;;17.02;15.02;;;19.90;84.60;;;;;;4992430;28;20411;-76
2021/09/15 01:32:49;;;;;;;17.83;14.63;;;19.90;84.20;;;;;;4991619;28;20430;-75
2021/09/15 01:35:15;;;;;;;19.60;14.60;;;19.90;84.10;;;;;;4991355;28;20421;-74
2021/09/15 01:37:40;;;;;;;17.98;15.05;;;19.90;84.70;;;;;;4990752;28;20755;-76
2021/09/15 01:40:06;;;;;;;21.57;15.07;;;19.90;84.90;;;;;;4991230;28;20741;-75
2021/09/15 01:42:32;;;;;;;16.85;15.00;;;19.90;85.00;;;;;;4991400;28;20391;-75
2021/09/15 01:44:57;;;;;;;20.67;15.33;;;19.90;85.00;;;;;;4990980;28;20394;-75
2021/09/15 01:47:23;;;;;;;16.93;14.43;;;19.90;85.40;;;;;;4991266;28;20495;-75
2021/09/15 01:49:49;;;;;;;20.00;14.73;;;19.80;85.60;;;;;;4990901;28;20390;-74
2021/09/15 01:52:16;;;;;;;16.40;14.68;;;19.80;85.70;;;;;;4991129;28;20920;-75
2021/09/15 01:54:43;;;;;;;21.60;15.02;;;19.90;84.90;;;;;;4991260;28;20386;-76
2021/09/15 01:57:09;;;;;;;16.70;14.50;;;19.80;85.90;;;;;;4991335;28;20394;-75
2021/09/15 01:59:35;;;;;;;19.30;15.50;;;19.80;85.80;;;;;;4990581;28;20489;-75
2021/09/15 02:02:00;;;;;;;18.10;14.80;;;19.80;85.70;;;;;;4991069;28;20882;-75
2021/09/15 02:04:26;;;;;;;21.85;15.00;;;19.80;85.80;;;;;;4991103;28;20394;-75
2021/09/15 02:06:52;;;;;;;20.60;14.73;;;19.80;86.30;;;;;;4991116;28;20436;-76
2021/09/15 02:09:17;;;;;;;17.40;14.93;;;19.80;86.70;;;;;;4990738;28;20401;-75
2021/09/15 02:11:43;;;;;;;17.57;15.77;;;19.80;86.90;;;;;;4989562;28;20415;-77
2021/09/15 02:14:09;;;;;;;19.50;15.40;;;19.80;87.80;;;;;;4992588;28;20752;-76
2021/09/15 02:16:34;;;;;;;18.52;15.57;;;19.80;88.50;;;;;;4998258;28;20390;-76
2021/09/15 02:19:00;;;;;;;21.00;15.68;;;19.80;89.30;;;;;;4997279;28;20391;-76
2021/09/15 02:21:26;;;;;;;19.35;14.93;;;19.70;89.40;;;;;;4991034;28;20490;-75
2021/09/15 02:23:51;;;;;;;17.60;15.70;;;19.70;89.70;;;;;;4991562;28;20406;-76
2021/09/15 02:26:17;;;;;;;17.77;15.87;;;19.70;90.70;;;;;;4991681;28;21089;-76
2021/09/15 02:28:43;;;;;;;22.23;16.27;;;19.70;91.10;;;;;;4990094;28;20394;-77
2021/09/15 02:31:09;;;;;;;23.77;16.30;;;19.70;91.30;;;;;;4991227;28;20406;-76
2021/09/15 02:33:35;;;;;;;19.02;15.75;;;19.80;89.00;;;;;;4990944;28;20389;-75
2021/09/15 02:36:00;;;;;;;17.42;15.50;;;19.80;89.70;;;;;;4990565;28;20780;-74
2021/09/15 02:38:26;;;;;;;20.90;16.33;;;19.80;88.80;;;;;;4990669;28;20402;-75
2021/09/15 02:40:52;;;;;;;26.25;17.20;;;19.80;89.80;;;;;;4990309;28;20417;-75
2021/09/15 02:43:18;;;;;;;17.50;15.68;;;19.80;90.20;;;;;;4990810;28;20410;-77
2021/09/15 02:45:44;;;;;;;23.23;16.83;;;19.80;90.90;;;;;;4990126;28;20632;-75
2021/09/15 02:48:09;;;;;;;19.10;17.00;;;19.80;90.30;;;;;;4990432;28;20461;-75
2021/09/15 02:50:35;;;;;;;22.55;17.33;;;19.80;90.80;;;;;;4992351;28;20488;-75
2021/09/15 02:53:00;;;;;;;19.43;16.27;;;19.80;90.90;;;;;;4993864;28;20394;-75
2021/09/15 02:55:26;;;;;;;23.73;17.00;;;19.70;91.80;;;;;;4992860;28;20525;-75
2021/09/15 02:57:52;;;;;;;22.50;17.70;;;19.70;92.90;;;;;;4993782;28;20792;-76
2021/09/15 03:00:17;;;;;;;19.13;17.00;;;19.70;93.20;;;;;;4993881;28;20391;-75
2021/09/15 03:02:44;;;;;;;24.90;17.30;;;19.70;93.40;;;;;;4993898;28;20414;-75
2021/09/15 03:05:10;;;;;;;20.80;17.63;;;19.70;93.30;;;;;;4994174;28;20401;-76
2021/09/15 03:07:36;;;;;;;22.48;17.00;;;19.70;94.10;;;;;;4993442;28;20488;-75
2021/09/15 03:10:04;;;;;;;20.65;18.23;;;19.70;95.00;;;;;;4993708;28;20837;-76
2021/09/15 03:12:29;;;;;;;24.02;18.23;;;19.60;95.30;;;;;;4993702;28;20387;-76
2021/09/15 03:14:55;;;;;;;24.27;17.23;;;19.60;96.60;;;;;;4993784;28;20828;-76
2021/09/15 03:17:20;;;;;;;20.75;18.50;;;19.60;97.60;;;;;;4993528;28;20425;-75
2021/09/15 03:19:46;;;;;;;29.07;18.90;;;19.60;98.10;;;;;;4992204;28;20892;-76
2021/09/15 03:22:12;;;;;;;23.27;17.63;;;19.60;98.00;;;;;;4993312;28;20412;-76
2021/09/15 03:24:37;;;;;;;22.95;17.90;;;19.60;97.20;;;;;;4993948;28;20869;-75
2021/09/15 03:27:03;;;;;;;20.43;17.73;;;19.60;96.50;;;;;;4993702;28;20606;-75
2021/09/15 03:29:33;;;;;;;24.33;17.20;;;19.60;96.00;;;;;;4992355;28;20402;-75
2021/09/15 03:31:59;;;;;;;20.47;18.30;;;19.60;96.70;;;;;;4997396;28;20417;-76
2021/09/15 03:34:25;;;;;;;25.38;19.23;;;19.60;97.50;;;;;;4997360;28;20787;-76
2021/09/15 03:36:51;;;;;;;25.00;18.70;;;19.50;98.10;;;;;;4993730;28;20421;-75
2021/09/15 03:39:17;;;;;;;20.17;17.92;;;19.50;98.40;;;;;;4993731;28;20397;-76
2021/09/15 03:41:45;;;;;;;22.05;18.55;;;19.60;98.50;;;;;;4987580;28;20401;-75
2021/09/15 03:44:10;;;;;;;21.87;18.47;;;19.60;98.10;;;;;;4973871;28;20788;-75
2021/09/15 03:46:36;;;;;;;25.33;17.60;;;19.60;97.50;;;;;;4973891;28;20487;-75
2021/09/15 03:49:02;;;;;;;22.08;19.10;;;19.60;97.80;;;;;;4977410;28;20413;-75
2021/09/15 03:51:28;;;;;;;23.08;18.65;;;19.50;98.50;;;;;;4993363;28;20433;-74
2021/09/15 03:53:53;;;;;;;25.00;19.50;;;19.60;98.70;;;;;;4993052;28;20482;-75
2021/09/15 03:56:19;;;;;;;21.42;18.63;;;19.50;98.80;;;;;;4993311;28;20408;-75
2021/09/15 03:58:44;;;;;;;23.43;19.07;;;19.60;98.20;;;;;;4992466;28;20387;-75
2021/09/15 04:01:10;;;;;;;25.00;19.00;;;19.60;98.50;;;;;;4992806;28;20496;-75
2021/09/15 04:03:37;;;;;;;25.98;20.15;;;19.60;97.50;;;;;;4992575;28;20398;-75
2021/09/15 04:06:03;;;;;;;23.48;19.35;;;19.60;97.90;;;;;;4992778;28;20401;-75
2021/09/15 04:08:29;;;;;;;28.65;19.42;;;19.60;97.10;;;;;;4992344;28;20444;-76
2021/09/15 04:10:55;;;;;;;28.05;19.02;;;19.70;95.40;;;;;;4992638;28;20403;-76
2021/09/15 04:13:20;;;;;;;26.15;19.15;;;19.70;95.20;;;;;;4992650;28;20406;-75
2021/09/15 04:15:46;;;;;;;26.20;20.05;;;19.70;95.10;;;;;;4992520;28;20890;-75
2021/09/15 04:18:13;;;;;;;28.80;18.20;;;19.60;96.10;;;;;;4992207;28;20490;-75
2021/09/15 04:20:39;;;;;;;25.75;19.73;;;19.60;96.10;;;;;;4992111;28;20402;-75
2021/09/15 04:23:12;;;;;;;27.88;20.38;;;19.60;97.00;;;;;;4992732;28;20391;-75
2021/09/15 04:31:22;;;;;;;30.65;18.20;;;19.60;96.70;;;;;;4992226;28;20796;-75
2021/09/15 04:33:47;;;;;;;22.95;18.38;;;19.60;96.50;;;;;;4992636;28;20753;-75
2021/09/15 04:36:13;;;;;;;30.27;19.60;;;19.70;94.50;;;;;;4992354;28;20398;-75
2021/09/15 04:38:39;;;;;;;24.50;19.17;;;19.70;93.70;;;;;;4992212;28;20422;-74
2021/09/15 04:41:05;;;;;;;24.37;19.17;;;19.60;94.80;;;;;;4993693;28;20478;-78
2021/09/15 04:43:31;;;;;;;25.77;20.58;;;19.60;95.10;;;;;;4974117;28;20442;-77
2021/09/15 04:45:56;;;;;;;25.30;18.90;;;19.60;94.60;;;;;;4985884;28;20402;-77
2021/09/15 04:48:22;;;;;;;22.63;19.30;;;19.60;95.20;;;;;;4992525;28;20402;-76
2021/09/15 04:50:48;;;;;;;26.65;21.02;;;19.60;95.40;;;;;;4993044;28;20432;-77
2021/09/15 04:53:13;;;;;;;23.58;20.00;;;19.60;96.00;;;;;;4995862;28;20698;-77
2021/09/15 04:55:39;;;;;;;20.33;18.13;;;19.70;94.40;;;;;;4994592;28;20386;-78
2021/09/15 04:58:04;;;;;;;25.00;19.23;;;19.70;93.40;;;;;;5003064;28;20444;-75
2021/09/15 05:00:31;;;;;;;23.67;18.35;;;19.70;92.80;;;;;;5001217;28;20409;-75
2021/09/15 05:02:57;;;;;;;21.98;19.15;;;19.70;93.60;;;;;;4994898;28;20386;-75
2021/09/15 05:05:23;;;;;;;24.70;18.73;;;19.60;93.70;;;;;;4993196;28;20386;-76
2021/09/15 05:07:48;;;;;;;24.75;18.90;;;19.70;93.60;;;;;;4994027;28;20401;-77
2021/09/15 05:10:14;;;;;;;24.10;18.13;;;19.70;93.70;;;;;;4992568;28;20460;-77
2021/09/15 05:12:39;;;;;;;25.27;19.17;;;19.70;93.30;;;;;;4992851;28;20418;-77
2021/09/15 05:15:06;;;;;;;27.13;18.70;;;19.70;93.00;;;;;;4993375;28;20420;-79
2021/09/15 05:17:32;;;;;;;28.67;19.50;;;19.70;92.50;;;;;;4996740;28;20383;-77
2021/09/15 05:19:57;;;;;;;26.40;19.90;;;19.80;92.30;;;;;;5007885;28;20398;-77
2021/09/15 05:22:23;;;;;;;23.33;18.45;;;19.80;91.40;;;;;;5003655;28;20922;-77
2021/09/15 05:24:49;;;;;;;24.80;19.50;;;19.80;92.30;;;;;;4993640;28;20468;-77
2021/09/15 05:27:14;;;;;;;29.03;20.57;;;19.80;92.30;;;;;;4993398;28;20400;-77
2021/09/15 05:29:40;;;;;;;26.40;19.45;;;19.80;92.50;;;;;;4994520;28;20485;-78
2021/09/15 05:32:06;;;;;;;21.73;18.00;;;19.80;92.50;;;;;;5003075;28;20441;-77
2021/09/15 05:34:32;;;;;;;28.58;18.60;;;19.80;92.10;;;;;;5007345;28;20418;-77
2021/09/15 05:36:57;;;;;;;30.42;19.40;;;19.90;91.60;;;;;;5005608;28;20398;-78
2021/09/15 05:39:23;;;;;;;27.43;19.10;;;19.90;91.50;;;;;;4998676;28;20387;-78
2021/09/15 05:41:48;;;;;;;27.00;19.60;;;20.00;91.20;;;;;;4993978;28;20402;-77
2021/09/15 05:44:14;;;;;;;32.27;23.20;;;20.00;90.60;;;;;;4996132;28;20393;-75
2021/09/15 05:46:39;;;;;;;29.50;21.90;;;20.00;90.90;;;;;;4993116;28;20426;-78
2021/09/15 05:49:05;;;;;;;44.53;27.02;;;20.00;90.10;;;;;;4992226;28;20398;-77
2021/09/15 05:51:31;;;;;;;33.00;21.13;;;20.00;90.90;;;;;;4992219;28;20426;-76
2021/09/15 05:53:56;;;;;;;25.97;20.20;;;20.00;91.00;;;;;;4992285;28;20517;-78
2021/09/15 05:56:22;;;;;;;30.07;20.33;;;20.00;90.40;;;;;;4992567;28;20390;-78
2021/09/15 05:58:48;;;;;;;23.98;19.00;;;20.00;90.00;;;;;;4993057;28;20390;-78
2021/09/15 06:01:13;;;;;;;32.92;21.48;;;20.10;89.70;;;;;;4992675;28;20402;-78
2021/09/15 06:03:39;;;;;;;71.47;53.37;;;20.10;88.70;;;;;;4994786;28;20394;-78
2021/09/15 06:06:05;;;;;;;50.33;37.80;;;20.10;87.80;;;;;;4994940;28;20978;-77
2021/09/15 06:08:30;;;;;;;28.95;21.50;;;20.10;88.00;;;;;;4993534;28;20429;-77
2021/09/15 06:10:56;;;;;;;34.92;21.55;;;20.20;86.60;;;;;;4992844;28;20844;-78
2021/09/15 06:13:22;;;;;;;35.23;26.07;;;20.20;86.90;;;;;;4992910;28;20386;-77
2021/09/15 06:15:48;;;;;;;33.63;24.50;;;20.30;86.60;;;;;;4991976;28;20421;-77
2021/09/15 06:18:14;;;;;;;29.10;20.42;;;20.40;84.60;;;;;;4992840;28;20387;-77
2021/09/15 06:20:40;;;;;;;50.57;35.63;;;20.50;83.40;;;;;;4990264;28;20830;-75
2021/09/15 06:23:06;;;;;;;30.57;21.90;;;20.50;81.80;;;;;;4995829;28;20445;-78
2021/09/15 06:25:31;;;;;;;36.70;25.75;;;20.60;79.90;;;;;;5005379;28;20471;-80
2021/09/15 06:27:57;;;;;;;31.70;22.20;;;20.60;79.60;;;;;;5018599;28;20392;-79
2021/09/15 06:30:24;;;;;;;30.67;22.50;;;20.70;77.80;;;;;;5022459;28;20499;-82
2021/09/15 06:32:50;;;;;;;28.60;20.00;;;20.60;78.40;;;;;;5025732;28;20388;-79
2021/09/15 06:35:16;;;;;;;32.95;25.65;;;20.60;77.90;;;;;;5029714;28;20380;-79
2021/09/15 06:37:42;;;;;;;28.90;20.40;;;20.60;79.50;;;;;;5022168;28;20497;-79
2021/09/15 06:40:09;;;;;;;29.05;23.75;;;20.60;78.50;;;;;;5030448;28;20408;-76
2021/09/15 06:42:35;;;;;;;31.73;19.70;;;20.60;78.60;;;;;;5027900;28;20541;-78
2021/09/15 06:45:01;;;;;;;28.23;20.30;;;20.60;80.00;;;;;;5031238;28;20393;-78
2021/09/15 06:47:26;;;;;;;25.77;18.40;;;20.60;80.30;;;;;;5019777;28;20395;-77
2021/09/15 06:49:52;;;;;;;23.35;18.63;;;20.60;81.40;;;;;;5032429;28;20397;-77
2021/09/15 06:52:18;;;;;;;43.78;33.03;;;20.50;84.50;;;;;;5028200;28;20418;-78
2021/09/15 06:54:47;;;;;;;24.70;19.47;;;20.50;86.20;;;;;;5027515;28;20412;-77
2021/09/15 06:57:12;;;;;;;53.85;39.90;;;20.50;87.60;;;;;;5026378;28;20483;-78
2021/09/15 06:59:38;;;;;;;48.27;35.93;;;20.40;90.50;;;;;;5025744;28;20901;-79
2021/09/15 07:02:03;;;;;;;44.03;34.05;;;20.40;91.90;;;;;;5027541;28;20809;-78
2021/09/15 07:04:29;;;;;;;28.30;22.98;;;20.40;93.90;;;;;;5021596;28;20394;-79
2021/09/15 07:06:55;;;;;;;29.53;21.30;;;20.40;94.20;;;;;;5009955;28;20496;-78
2021/09/15 07:09:20;;;;;;;25.35;18.88;;;20.30;95.00;;;;;;5027215;28;20401;-78
2021/09/15 07:11:46;;;;;;;28.40;18.10;;;20.40;96.50;;;;;;5025932;28;20443;-77
2021/09/15 07:14:12;;;;;;;31.90;20.07;;;20.50;94.40;;;;;;5010817;28;20390;-78
2021/09/15 07:16:38;;;;;;;22.07;16.63;;;20.50;94.00;;;;;;5018452;28;20404;-77
2021/09/15 07:19:04;;;;;;;23.55;17.33;;;20.60;93.60;;;;;;5025993;28;20423;-77
2021/09/15 07:21:29;;;;;;;25.43;17.63;;;20.60;89.60;;;;;;5031661;28;20446;-77
2021/09/15 07:23:55;;;;;;;22.50;17.02;;;20.60;89.40;;;;;;5017692;28;20853;-77
2021/09/15 07:26:21;;;;;;;22.95;16.80;;;20.60;86.60;;;;;;5031877;28;20397;-78
2021/09/15 07:28:47;;;;;;;21.25;16.33;;;20.60;89.20;;;;;;5029829;28;20392;-79
2021/09/15 07:31:12;;;;;;;28.03;18.47;;;20.60;89.10;;;;;;5029772;28;20405;-79
2021/09/15 07:33:38;;;;;;;22.93;17.50;;;20.60;90.10;;;;;;5040423;28;20403;-80
2021/09/15 07:36:04;;;;;;;25.80;16.95;;;20.60;90.30;;;;;;5029670;28;20444;-79
2021/09/15 07:38:32;;;;;;;20.75;16.80;;;20.60;88.20;;;;;;5031281;28;20389;-78
2021/09/15 07:40:57;;;;;;;22.85;16.67;;;20.60;88.10;;;;;;5034038;28;20395;-77
2021/09/15 07:43:23;;;;;;;24.15;17.02;;;20.70;86.20;;;;;;5019985;28;20480;-77
2021/09/15 07:45:50;;;;;;;23.15;16.38;;;20.70;86.50;;;;;;5012228;28;20886;-75
2021/09/15 07:48:15;;;;;;;29.73;17.48;;;20.70;86.20;;;;;;5014901;28;20413;-74
2021/09/15 07:50:41;;;;;;;24.60;18.00;;;20.70;84.60;;;;;;5014118;28;20409;-75
2021/09/15 07:53:06;;;;;;;26.13;17.23;;;20.70;84.50;;;;;;5014212;28;20496;-76
2021/09/15 07:55:32;;;;;;;22.13;17.27;;;20.80;84.60;;;;;;5017087;28;20389;-76
2021/09/15 07:57:58;;;;;;;24.80;18.17;;;20.80;82.60;;;;;;5023208;28;20400;-76
2021/09/15 08:00:23;;;;;;;24.80;17.07;;;20.80;82.20;;;;;;5014355;28;20380;-76
2021/09/15 08:02:49;;;;;;;25.83;17.50;;;20.80;83.80;;;;;;5013574;28;20399;-76
2021/09/15 08:05:16;;;;;;;23.70;17.58;;;20.80;82.80;;;;;;5013832;28;20418;-76
2021/09/15 08:07:41;;;;;;;22.85;17.38;;;20.90;82.50;;;;;;5012675;28;20398;-76
2021/09/15 08:10:07;;;;;;;21.37;16.50;;;21.00;81.40;;;;;;5013786;28;20464;-76
2021/09/15 08:12:33;;;;;;;31.20;17.20;;;21.20;79.20;;;;;;5013231;28;20412;-76
2021/09/15 08:14:59;;;;;;;25.17;16.40;;;21.40;74.80;;;;;;5013537;28;20419;-76
2021/09/15 08:17:24;;;;;;;25.27;14.98;;;21.60;73.00;;;;;;5013956;28;20395;-75
2021/09/15 08:19:50;;;;;;;24.83;14.77;;;21.90;67.60;;;;;;5012662;28;20383;-75
2021/09/15 08:22:16;;;;;;;23.17;15.30;;;22.00;66.00;;;;;;5012940;28;20885;-74
2021/09/15 08:24:41;;;;;;;21.85;15.77;;;22.10;64.90;;;;;;5008979;28;20420;-73
2021/09/15 08:27:07;;;;;;;19.45;14.10;;;22.20;64.00;;;;;;5004339;28;20428;-74
2021/09/15 08:29:33;;;;;;;20.17;13.20;;;22.20;63.20;;;;;;5007843;28;20768;-77
2021/09/15 08:31:58;;;;;;;21.65;13.90;;;22.30;62.00;;;;;;5009717;28;20455;-77
2021/09/15 08:34:24;;;;;;;19.03;12.20;;;22.40;60.80;;;;;;5021469;28;20393;-77
2021/09/15 08:36:49;;;;;;;16.03;12.30;;;22.30;59.10;;;;;;5027013;28;20412;-74
2021/09/15 08:39:16;;;;;;;18.92;11.75;;;22.30;58.70;;;;;;5016795;28;20479;-75
2021/09/15 08:41:41;;;;;;;18.52;10.77;;;22.30;58.10;;;;;;5011302;28;20408;-78
2021/09/15 08:44:09;;;;;;;15.90;11.80;;;22.30;58.70;;;;;;5011702;28;21002;-76
2021/09/15 08:46:36;;;;;;;18.57;12.13;;;22.20;60.30;;;;;;5016000;28;20428;-76
2021/09/15 08:49:01;;;;;;;18.67;10.95;;;22.20;60.40;;;;;;5014876;28;20775;-74
2021/09/15 08:51:27;;;;;;;19.38;11.23;;;22.10;60.50;;;;;;5010186;28;20476;-76
2021/09/15 08:53:54;;;;;;;18.35;11.93;;;22.00;61.40;;;;;;5004895;28;20392;-76
2021/09/15 08:56:20;;;;;;;14.80;10.18;;;22.10;60.10;;;;;;5011842;28;20431;-76
2021/09/15 08:58:45;;;;;;;13.75;9.32;;;22.10;59.90;;;;;;5018015;28;20392;-77
2021/09/15 09:01:15;;;;;;;15.63;9.38;;;22.00;59.50;;;;;;5032576;28;20395;-76
2021/09/15 09:03:41;;;;;;;12.95;8.77;;;22.00;59.90;;;;;;5027822;28;20380;-77
2021/09/15 09:06:17;;;;;;;11.20;8.43;;;22.00;58.60;;;;;;5019067;28;20407;-77
2021/09/15 09:08:45;;;;;;;13.13;9.10;;;22.00;59.80;;;;;;5015913;28;20400;-76
2021/09/15 09:11:13;;;;;;;15.37;9.33;;;21.80;59.70;;;;;;5013179;28;20468;-76
2021/09/15 09:13:50;;;;;;;16.48;10.30;;;21.80;61.60;;;;;;5006338;28;20447;-75
2021/09/15 09:16:19;;;;;;;16.92;10.20;;;21.70;64.30;;;;;;5009505;28;20401;-78
2021/09/15 09:19:12;;;;;;;17.60;10.60;;;21.80;63.30;;;;;;4992537;28;20445;-75
2021/09/15 09:21:41;;;;;;;16.85;9.65;;;21.60;67.00;;;;;;4992260;28;20408;-76
2021/09/15 09:24:09;;;;;;;12.27;9.55;;;21.60;67.30;;;;;;4992448;28;20393;-75
2021/09/15 09:26:57;;;;;;;14.30;10.90;;;21.50;67.30;;;;;;4992238;28;20394;-75
2021/09/15 09:29:24;;;;;;;15.10;10.73;;;21.50;68.20;;;;;;4995582;28;20400;-76
2021/09/15 09:32:05;;;;;;;17.38;11.55;;;21.40;67.10;;;;;;5011151;28;20696;-75
2021/09/15 09:34:43;;;;;;;18.13;11.90;;;21.40;68.80;;;;;;5011169;28;20851;-75
2021/09/15 09:37:16;;;;;;;17.33;13.75;;;21.40;70.90;;;;;;5011447;28;20409;-76
2021/09/15 09:39:42;;;;;;;19.58;13.07;;;21.40;71.30;;;;;;5009906;28;20886;-77
2021/09/15 09:42:23;;;;;;;17.03;13.00;;;21.30;73.30;;;;;;5002062;28;20406;-75
2021/09/15 09:45:04;;;;;;;18.95;13.20;;;21.30;77.00;;;;;;4991579;28;20445;-75
2021/09/15 09:47:30;;;;;;;17.73;13.50;;;21.30;77.20;;;;;;4991848;28;20445;-75
2021/09/15 09:50:05;;;;;;;22.25;14.82;;;21.50;76.00;;;;;;4991039;28;20402;-76
2021/09/15 09:52:49;;;;;;;24.42;14.50;;;21.60;77.60;;;;;;4990959;28;20406;-74
2021/09/15 09:55:15;;;;;;;15.73;13.07;;;21.90;73.20;;;;;;4991135;28;20382;-74
2021/09/15 09:57:40;;;;;;;21.47;11.87;;;22.20;69.20;;;;;;4990990;28;21036;-74
2021/09/15 10:00:07;;;;;;;20.27;11.77;;;22.60;64.40;;;;;;5009690;28;20479;-74
2021/09/15 10:02:32;;;;;;;15.67;11.07;;;22.90;58.90;;;;;;5013296;28;20400;-76
2021/09/15 10:05:02;;;;;;;19.50;11.03;;;23.10;57.80;;;;;;5014769;28;20455;-75
2021/09/15 10:07:28;;;;;;;14.63;10.70;;;23.40;54.90;;;;;;5014502;28;20416;-76
2021/09/15 10:09:54;;;;;;;15.32;10.43;;;23.70;54.80;;;;;;5014659;28;20392;-74
2021/09/15 10:12:20;;;;;;;12.32;10.02;;;23.80;51.30;;;;;;5015561;28;20400;-75
2021/09/15 10:14:46;;;;;;;12.15;9.80;;;24.00;48.60;;;;;;5016409;28;20404;-76
2021/09/15 10:17:14;;;;;;;14.15;9.20;;;23.90;49.60;;;;;;5016593;28;20388;-77
2021/09/15 10:19:45;;;;;;;15.57;9.23;;;23.80;49.80;;;;;;5016046;28;20400;-75
2021/09/15 10:22:11;;;;;;;12.13;9.83;;;23.70;48.60;;;;;;5018547;28;20420;-75
2021/09/15 10:24:53;;;;;;;19.27;10.00;;;23.40;49.80;;;;;;5017054;28;20731;-76
2021/09/15 10:27:21;;;;;;;12.10;9.70;;;23.20;52.00;;;;;;5015087;28;20420;-75
2021/09/15 10:30:19;;;;;;;13.93;9.77;;;23.00;55.10;;;;;;5014981;28;20766;-76
2021/09/15 10:32:48;;;;;;;11.43;9.90;;;22.90;55.90;;;;;;5003358;28;20393;-75
2021/09/15 10:35:15;;;;;;;14.00;9.97;;;22.70;57.40;;;;;;5013958;28;20471;-76
2021/09/15 10:37:40;;;;;;;10.57;9.18;;;22.70;57.00;;;;;;5014111;28;20380;-74
2021/09/15 10:40:11;;;;;;;11.13;9.32;;;22.50;59.20;;;;;;5009351;28;20466;-78
2021/09/15 10:45:16;;;;;;;14.17;10.43;;;22.60;58.80;;;;;;4994676;28;20379;-76
2021/09/15 10:47:44;;;;;;;14.93;10.95;;;22.60;61.30;;;;;;4993463;28;20397;-75
2021/09/15 10:50:33;;;;;;;13.15;10.70;;;22.70;60.40;;;;;;4992681;28;20433;-76
2021/09/15 10:53:07;;;;;;;13.03;10.60;;;22.70;58.00;;;;;;4999702;28;20444;-75
2021/09/15 10:55:42;;;;;;;13.50;10.50;;;22.70;57.20;;;;;;5013814;28;20472;-74
2021/09/15 10:58:14;;;;;;;13.93;10.50;;;22.70;59.10;;;;;;5013559;28;20412;-75
2021/09/15 11:00:48;;;;;;;14.38;11.00;;;22.80;58.50;;;;;;4995404;28;20409;-75
2021/09/15 11:03:34;;;;;;;11.77;10.55;;;22.70;57.30;;;;;;4993952;28;20374;-74
2021/09/15 11:06:12;;;;;;;13.43;10.30;;;22.50;57.30;;;;;;4992487;28;20772;-76
2021/09/15 11:08:43;;;;;;;13.10;11.00;;;22.60;59.70;;;;;;4999519;28;20395;-76
2021/09/15 11:11:20;;;;;;;16.97;11.63;;;22.60;60.70;;;;;;5012295;28;20405;-75
2021/09/15 11:13:51;;;;;;;14.45;12.00;;;22.60;59.20;;;;;;5012163;28;20396;-76
2021/09/15 11:16:25;;;;;;;14.48;12.40;;;22.70;57.10;;;;;;5013895;28;20381;-76
2021/09/15 11:18:55;;;;;;;13.98;12.48;;;22.70;55.60;;;;;;5013407;28;20531;-76
2021/09/15 11:21:22;;;;;;;18.23;13.30;;;22.60;55.30;;;;;;5013750;28;20393;-75
2021/09/15 11:24:09;;;;;;;16.02;13.63;;;22.60;57.00;;;;;;5013173;28;20467;-75
2021/09/15 11:26:40;;;;;;;14.82;12.90;;;22.60;55.60;;;;;;4994180;28;20733;-76
2021/09/15 11:29:06;;;;;;;16.33;13.82;;;22.70;56.10;;;;;;4993706;28;20398;-76
2021/09/15 11:31:36;;;;;;;15.10;13.45;;;23.00;56.70;;;;;;4992706;28;20808;-76
2021/09/15 11:34:07;;;;;;;16.43;13.17;;;23.30;52.30;;;;;;4993331;28;20402;-74
2021/09/15 11:36:34;;;;;;;17.97;13.90;;;23.60;50.40;;;;;;5008017;28;20377;-74
2021/09/15 11:39:00;;;;;;;17.00;14.73;;;23.90;45.10;;;;;;5012793;28;20393;-75
2021/09/15 11:41:26;;;;;;;18.70;15.07;;;23.70;45.30;;;;;;5013759;28;20380;-76
2021/09/15 11:43:51;;;;;;;19.85;16.38;;;23.30;48.20;;;;;;5013731;28;20420;-75
2021/09/15 11:46:18;;;;;;;23.15;16.95;;;23.00;51.30;;;;;;5014195;28;20416;-76
2021/09/15 11:48:44;;;;;;;23.15;18.10;;;22.80;52.60;;;;;;5012908;28;20770;-74
2021/09/15 11:51:19;;;;;;;23.88;18.48;;;22.70;53.40;;;;;;5013517;28;20405;-76
2021/09/15 11:53:52;;;;;;;28.92;21.27;;;22.80;55.50;;;;;;5013319;28;20415;-76
2021/09/15 11:56:21;;;;;;;27.67;21.05;;;22.90;55.00;;;;;;4994345;28;20390;-75
2021/09/15 11:58:50;;;;;;;30.70;22.77;;;23.00;52.10;;;;;;4991152;28;20390;-75
2021/09/15 12:01:17;;;;;;;32.17;22.20;;;23.20;51.70;;;;;;4993368;28;20394;-76
2021/09/15 12:03:43;;;;;;;32.03;24.15;;;23.10;50.80;;;;;;4993045;28;20406;-75
2021/09/15 12:06:09;;;;;;;29.85;23.33;;;23.00;52.50;;;;;;4993036;28;20402;-74
2021/09/15 12:08:35;;;;;;;34.10;24.13;;;23.00;52.30;;;;;;4998591;28;20396;-77
2021/09/15 12:11:01;;;;;;;34.43;24.40;;;22.90;51.40;;;;;;5011586;28;20987;-76
2021/09/15 12:13:31;;;;;;;35.38;24.40;;;23.20;52.20;;;;;;5012736;28;20450;-75
2021/09/15 12:15:57;;;;;;;34.58;25.48;;;23.10;52.90;;;;;;5012768;28;20383;-76
2021/09/15 12:18:46;;;;;;;34.15;24.08;;;23.20;50.70;;;;;;5012468;28;20419;-76
2021/09/15 12:21:20;;;;;;;33.78;24.20;;;23.60;47.90;;;;;;5012322;28;20468;-75
2021/09/15 12:23:46;;;;;;;33.50;24.13;;;23.90;45.80;;;;;;5012226;28;20479;-74
2021/09/15 12:26:12;;;;;;;35.38;23.67;;;24.30;43.80;;;;;;5011819;28;20458;-75
2021/09/15 12:28:39;;;;;;;31.27;21.88;;;24.60;42.00;;;;;;5012313;28;20503;-76
2021/09/15 12:31:05;;;;;;;32.50;22.15;;;24.80;39.80;;;;;;5010712;28;20983;-75
2021/09/15 12:33:39;;;;;;;30.15;21.58;;;24.60;41.50;;;;;;5012475;28;20487;-76
2021/09/15 12:36:13;;;;;;;28.92;20.65;;;24.60;41.00;;;;;;5012956;28;20750;-75